• Join FlightAware (Why Join?)
  • Login
  • US Flag 
10:09AM EDT


 

Airport Tracker/Info


-or-


 

Live Flight TrackerFlight Track Log ✈ UAL1095 ✈ 22-May-2012 ✈ KEWR - SPIM / LIM

Flight Track Log - Related Links

Times and Time Zones

All times are in EDT time to prevent confusion due to time zone crossing. See the UAL1095 flight status page for this flight to view local times or setup timezone preferences in your user account.

Time Position Orientation Groundspeed Altitude Reporting Facility
EDT Latitude Longitude Course Direction KTS MPH feet Rate Location/Type
02:50PM 40.7167 -74.1500 37° Northeast 176 203 1,400  Level New York TRACON
02:51PM 40.7500 -74.1167 240° Southwest 215 247 2,800 2,040 Climbing New York TRACON
02:51PM 40.4122 -74.2123 360° North  Level FlightAware Approximate
02:52PM 40.7086 -74.2098 195° South 270 311 7,000  Level FlightAware ADS-B
02:53PM 40.6884 -74.2170 197° South 273 314 7,800 3,240 Climbing FlightAware ADS-B
02:53PM 40.6692 -74.2245 197° South 263 303 8,800 2,880 Climbing FlightAware ADS-B
02:53PM 40.6501 -74.2322 197° South 264 304 9,400 2,280 Climbing FlightAware ADS-B
02:54PM 40.6317 -74.2396 197° South 269 310 10,000 2,040 Climbing FlightAware ADS-B
02:54PM 40.5931 -74.2556 196° South 278 320 11,000 1,680 Climbing FlightAware ADS-B
02:54PM 40.5710 -74.2640 190° South 297 342 11,400 1,320 Climbing FlightAware ADS-B
02:55PM 40.5471 -74.2695 181° South 312 359 11,800 1,320 Climbing FlightAware ADS-B
02:55PM 40.5265 -74.2698 178° South 326 375 12,100 1,200 Climbing FlightAware ADS-B
02:55PM 40.4783 -74.2675 178° South 353 406 12,700 1,680 Climbing FlightAware ADS-B
02:56PM 40.4175 -74.2645 178° South 363 418 14,000 1,920 Climbing FlightAware ADS-B
02:57PM 40.3615 -74.2623 178° South 374 430 15,000 1,680 Climbing FlightAware ADS-B
02:57PM 40.3022 -74.2595 179° South 380 437 15,900 1,740 Climbing FlightAware ADS-B
02:58PM 40.2464 -74.2576 179° South 384 442 16,900 2,100 Climbing FlightAware ADS-B
02:58PM 40.2069 -74.2566 176° South 385 443 17,800 1,860 Climbing FlightAware ADS-B
02:58PM 40.1890 -74.2551 166° South 388 447 17,900 780 Climbing FlightAware ADS-B
02:58PM 40.1564 -74.2444 160° South 394 453 18,200 1,260 Climbing FlightAware ADS-B
02:59PM 40.1492 -74.2410 159° South 393 452 18,400 1,260 Climbing FlightAware ADS-B
02:59PM 40.0908 -74.2111 164° South 398 458 19,000 900 Climbing FlightAware ADS-B
02:59PM 40.0795 -74.2068 172° South 400 460 19,000  Level FlightAware ADS-B
02:59PM 40.0689 -74.2048 182° South 401 461 19,000 360 Level FlightAware ADS-B
02:59PM 40.0512 -74.2055 191° South 399 459 19,100 720 Climbing FlightAware ADS-B
03:00PM 40.0410 -74.2082 202° Southwest 398 458 19,200 2,100 Climbing FlightAware ADS-B
03:00PM 40.0261 -74.2160 212° Southwest 394 453 19,600 2,400 Climbing FlightAware ADS-B
03:00PM 40.0058 -74.2324 216° Southwest 390 449 20,100 2,160 Climbing FlightAware ADS-B
03:00PM 39.9983 -74.2396 220° Southwest 391 450 20,300 1,740 Climbing FlightAware ADS-B
03:00PM 39.9808 -74.2587 225° Southwest 393 452 20,600 1,680 Climbing FlightAware ADS-B
03:01PM 39.9332 -74.3215 225° Southwest 397 457 21,700 1,200 Climbing FlightAware ADS-B
03:01PM 39.8907 -74.3771 224° Southwest 407 468 22,000 240 Climbing FlightAware ADS-B
03:02PM 39.8488 -74.4298 223° Southwest 405 466 22,000  Level FlightAware ADS-B
03:02PM 39.8065 -74.4817 223° Southwest 400 460 22,000  Level FlightAware ADS-B
03:03PM 39.7611 -74.5373 223° Southwest 399 459 22,000  Level FlightAware ADS-B
03:04PM 39.7199 -74.5881 223° Southwest 399 459 22,000 180 Level FlightAware ADS-B
03:04PM 39.6787 -74.6387 224° Southwest 398 458 22,200 960 Climbing FlightAware ADS-B
03:05PM 39.6361 -74.6913 223° Southwest 405 466 23,000 1,440 Climbing FlightAware ADS-B
03:05PM 39.5951 -74.7417 223° Southwest 410 472 23,700 1,500 Climbing FlightAware ADS-B
03:06PM 39.5537 -74.7925 223° Southwest 414 476 24,500 1,440 Climbing FlightAware ADS-B
03:06PM 39.5108 -74.8452 223° Southwest 419 482 25,200 1,320 Climbing FlightAware ADS-B
03:07PM 39.4617 -74.9053 223° Southwest 423 487 26,000 1,320 Climbing FlightAware ADS-B
03:07PM 39.4158 -74.9613 223° Southwest 429 494 26,700 1,200 Climbing FlightAware ADS-B
03:08PM 39.3649 -75.0234 223° Southwest 434 499 27,400 1,200 Climbing FlightAware ADS-B
03:08PM 39.3233 -75.0739 218° Southwest 436 502 28,000 1,320 Climbing FlightAware ADS-B
03:08PM 39.3046 -75.0930 212° Southwest 439 505 28,300 1,260 Climbing FlightAware ADS-B
03:09PM 39.2862 -75.1076 204° Southwest 440 506 28,500 1,020 Climbing FlightAware ADS-B
03:09PM 39.2542 -75.1261 199° South 444 511 28,800 1,140 Climbing FlightAware ADS-B
03:09PM 39.1953 -75.1517 198° South 447 514 29,400 1,140 Climbing FlightAware ADS-B
03:10PM 39.1350 -75.1769 198° South 450 518 30,000 1,020 Climbing FlightAware ADS-B
03:10PM 39.0719 -75.2031 198° South 453 521 30,500 960 Climbing FlightAware ADS-B
03:11PM 39.0099 -75.2291 198° South 459 528 31,000 1,200 Climbing FlightAware ADS-B
03:11PM 38.9440 -75.2565 198° South 458 527 31,800 1,440 Climbing FlightAware ADS-B
03:12PM 38.8808 -75.2830 198° South 449 517 32,600 1,380 Climbing FlightAware ADS-B
03:13PM 38.8178 -75.3092 198° South 446 513 33,300 1,200 Climbing FlightAware ADS-B
03:13PM 38.7589 -75.3338 198° South 444 511 33,900 660 Climbing FlightAware ADS-B
03:14PM 38.6992 -75.3585 198° South 444 511 34,000 60 Climbing FlightAware ADS-B
03:14PM 38.6401 -75.3829 198° South 441 507 34,000  Level FlightAware ADS-B
03:15PM 38.5687 -75.4124 198° South 441 507 34,000  Level FlightAware ADS-B
03:15PM 38.5034 -75.4393 198° South 439 505 34,000  Level FlightAware ADS-B
03:16PM 38.4427 -75.4643 198° South 438 504 34,000  Level FlightAware ADS-B
03:16PM 38.3780 -75.4909 208° Southwest 437 503 34,000  Level FlightAware ADS-B
03:17PM 38.2794 -75.5577 217° Southwest 436 502 34,000  Level FlightAware ADS-B
03:17PM 38.2647 -75.5720 218° Southwest 431 496 34,000  Level FlightAware ADS-B
03:18PM 38.2118 -75.6241 217° Southwest 430 495 34,000  Level FlightAware ADS-B
03:19PM 38.1607 -75.6738 222° Southwest 429 494 34,000  Level FlightAware ADS-B
03:19PM 38.1083 -75.7342 220° Southwest 431 496 34,000  Level Washington Center
03:20PM 38.0164 -75.8317 219° Southwest 431 496 34,000  Level Washington Center
03:21PM 37.8968 -75.9538 226° Southwest 427 491 34,000  Level FlightAware ADS-B
03:22PM 37.8266 -76.0463 24° Northeast 425 489 34,000  Level FlightAware ADS-B
03:22PM 37.8450 -76.0361 225° Southwest 431 496 34,000  Level Washington Center
03:23PM 37.7528 -76.1511 228° Southwest 431 496 34,000  Level Washington Center
03:25PM 37.6187 -76.3389 233° Southwest 424 488 34,000  Level FlightAware ADS-B
03:25PM 37.5794 -76.4048 234° Southwest 424 488 34,000  Level FlightAware ADS-B
03:26PM 37.5221 -76.5050 234° Southwest 424 488 34,000  Level FlightAware ADS-B
03:27PM 37.4809 -76.5773 210° Southwest 424 488 34,000  Level FlightAware ADS-B
03:28PM 37.3672 -76.6594 197° South 426 490 34,000  Level FlightAware ADS-B
03:29PM 37.2483 -76.7058 195° South 423 487 34,000  Level Washington Center
03:30PM 37.1331 -76.7433 200° South 423 487 34,000  Level Washington Center
03:31PM 37.0222 -76.7936 202° Southwest 429 494 34,000  Level Washington Center
03:32PM 36.9131 -76.8492 204° Southwest 429 494 34,000  Level Washington Center
03:33PM 36.8019 -76.9122 205° Southwest 434 499 34,000  Level Washington Center
03:34PM 36.6925 -76.9753 206° Southwest 434 499 34,000  Level Washington Center
03:35PM 36.5833 -77.0406 211° Southwest 434 499 34,000  Level Washington Center
03:36PM 36.4803 -77.1161 212° Southwest 439 505 34,000  Level Washington Center
03:37PM 36.3728 -77.1992 225° Southwest 444 511 34,000  Level Washington Center
03:38PM 36.2856 -77.3056 224° Southwest 450 518 34,000  Level Washington Center
03:39PM 36.1944 -77.4142 226° Southwest 450 518 34,000  Level Washington Center
03:40PM 36.1092 -77.5228 224° Southwest 450 518 34,000  Level Washington Center
03:41PM 36.0156 -77.6336 224° Southwest 450 518 34,000  Level Washington Center
03:42PM 35.9261 -77.7389 224° Southwest 444 511 34,000  Level Washington Center
03:43PM 35.8367 -77.8442 222° Southwest 452 520 34,000  Level Washington Center
03:44PM 35.7428 -77.9489 205° Southwest 457 526 34,000  Level Washington Center
03:45PM 35.6331 -78.0122 190° South 444 511 34,000  Level Washington Center
03:46PM 35.5008 -78.0414 188° South 432 497 34,000  Level Washington Center
03:47PM 35.3836 -78.0606 183° South 432 497 34,000  Level Washington Center
03:48PM 35.2644 -78.0672 173° South 437 503 34,000  Level Washington Center
03:49PM 35.1461 -78.0483 173° South 432 497 34,000  Level Washington Center
03:50PM 35.0275 -78.0294 190° South 432 497 34,000  Level Washington Center
03:51PM 34.9081 -78.0564 202° Southwest 424 488 34,000  Level Washington Center
03:52PM 34.8111 -78.1039 201° Southwest 429 494 34,000  Level Washington Center
03:53PM 34.6972 -78.1561 203° Southwest 435 501 34,000  Level Washington Center
03:54PM 34.5856 -78.2131 206° Southwest 435 501 34,000  Level Washington Center
03:55PM 34.4775 -78.2775 205° Southwest 440 506 34,000  Level Washington Center
03:56PM 34.3656 -78.3419 177° South 445 512 34,000  Level Washington Center
04:27PM 30.6022 -78.1111 184° South 436 502 34,000  Level Miami Center
04:32PM 30.0367 -78.1594 190° South 401 461 34,000  Level Miami Center
04:33PM 29.9261 -78.1819 187° South 391 450 34,000  Level Miami Center
04:34PM 29.8133 -78.1975 188° South 387 445 34,000  Level Miami Center
04:35PM 29.7069 -78.2153 187° South 393 452 34,000  Level Miami Center
04:36PM 29.5961 -78.2306 188° South 393 452 34,000  Level Miami Center
04:37PM 29.5083 -78.2439 189° South 398 458 34,000  Level Miami Center
04:38PM 29.3808 -78.2661 188° South 393 452 34,000  Level Miami Center
04:39PM 29.2744 -78.2836 187° South 393 452 34,000  Level Miami Center
04:40PM 29.1658 -78.2989 189° South 394 453 34,000  Level Miami Center
04:41PM 29.0611 -78.3189 187° South 394 453 34,000  Level Miami Center
04:42PM 28.9525 -78.3342 188° South 389 448 34,000  Level Miami Center
04:43PM 28.8439 -78.3517 187° South 389 448 34,000  Level Miami Center
04:44PM 28.7331 -78.3667 188° South 394 453 34,000  Level Miami Center
04:45PM 28.6244 -78.3842 190° South 399 459 34,000  Level Miami Center
04:46PM 28.5239 -78.4039 186° South 391 450 34,000  Level Miami Center
04:47PM 28.4069 -78.4189 187° South 396 456 34,000  Level Miami Center
04:48PM 28.2983 -78.4339 189° South 396 456 34,000  Level Miami Center
04:49PM 28.1917 -78.4536 187° South 396 456 34,000  Level Miami Center
04:50PM 28.0828 -78.4686 189° South 396 456 34,000  Level Miami Center
04:51PM 27.9761 -78.4883 186° South 391 450 34,000  Level Miami Center
04:52PM 27.8694 -78.5008 188° South 391 450 34,000  Level Miami Center
04:53PM 27.7586 -78.5181 167° South 399 459 34,000  Level Miami Center
04:54PM 27.6503 -78.4906 162° South 384 442 34,000  Level Miami Center
04:55PM 27.5400 -78.4494 168° South 401 461 34,000  Level Miami Center
04:56PM 27.4278 -78.4219 170° South 408 470 34,000  Level Miami Center
04:57PM 27.3150 -78.3994 178° South 411 473 34,000  Level Miami Center
04:58PM 27.2044 -78.3956 189° South 411 473 34,000  Level Miami Center
04:59PM 27.1019 -78.4131 191° South 396 456 34,000  Level Miami Center
05:00PM 26.9953 -78.4372 192° South 396 456 34,000  Level Miami Center
05:01PM 26.8861 -78.4636 187° South 391 450 34,000  Level Miami Center
05:02PM 26.7942 -78.4764 193° South 385 443 34,000  Level Miami Center
05:03PM 26.6894 -78.5028 189° South 394 453 34,000  Level Miami Center
05:04PM 26.5847 -78.5222 190° South 389 448 34,000  Level Miami Center
05:05PM 26.4781 -78.5439 193° South 394 453 34,000  Level Miami Center
05:06PM 26.3669 -78.5725 191° South 394 453 34,000  Level Miami Center
05:07PM 26.2622 -78.5942 191° South 394 453 34,000  Level Miami Center
05:08PM 26.1533 -78.6181 191° South 394 453 34,000  Level Miami Center
05:09PM 26.0486 -78.6397 191° South 394 453 34,000 300 Level Miami Center
05:10PM 25.9458 -78.6614 191° South 389 448 34,600 480 Climbing Miami Center
05:11PM 25.8369 -78.6850 192° South 389 448 35,000 180 Climbing Miami Center
05:12PM 25.7281 -78.7111 191° South 395 455 35,000  Level Miami Center
05:13PM 25.6253 -78.7325 190° South 395 455 35,000  Level Miami Center
05:14PM 25.5228 -78.7517 191° South 389 448 35,000  Level Miami Center
05:15PM 25.4158 -78.7753 192° South 389 448 35,000  Level Miami Center
05:16PM 25.3131 -78.7989 191° South 390 449 35,000  Level Miami Center
05:17PM 25.2042 -78.8225 190° South 395 455 35,000  Level Miami Center
05:19PM 24.9819 -78.8672 190° South 395 455 35,000  Level Miami Center
05:20PM 24.8753 -78.8883 192° South 395 455 35,000  Level Miami Center
05:21PM 24.7683 -78.9142 189° South 395 455 35,000  Level Miami Center
05:22PM 24.6594 -78.9328 190° South 395 455 35,000  Level Miami Center
05:23PM 24.5525 -78.9539 193° South 395 455 35,000  Level Miami Center
05:24PM 24.4392 -78.9817 190° South 400 460 35,000  Level Miami Center
05:25PM 24.3283 -79.0025 190° South 400 460 35,000  Level Miami Center
05:26PM 24.2192 -79.0236 192° South 400 460 35,000  Level Miami Center
05:27PM 24.1061 -79.0489 189° South 411 473 35,000  Level Miami Center
05:28PM 23.9908 -79.0697 182° South 411 473 35,000  Level Miami Center
05:36PM 23.0479 -79.0991 182° South  Level FlightAware Approximate
05:37PM 22.9266 -79.1031 182° South  Level FlightAware Approximate
05:38PM 22.8054 -79.1070 182° South  Level FlightAware Approximate
05:39PM 22.6842 -79.1110 182° South  Level FlightAware Approximate
05:40PM 22.5630 -79.1150 182° South  Level FlightAware Approximate
05:41PM 22.4417 -79.1189 182° South  Level FlightAware Approximate
05:42PM 22.3205 -79.1228 182° South  Level FlightAware Approximate
05:43PM 22.1993 -79.1268 182° South  Level FlightAware Approximate
05:44PM 22.0780 -79.1307 182° South  Level FlightAware Approximate
05:45PM 21.9568 -79.1346 182° South  Level FlightAware Approximate
05:46PM 21.8356 -79.1385 182° South  Level FlightAware Approximate
05:47PM 21.7143 -79.1424 182° South  Level FlightAware Approximate
05:48PM 21.5931 -79.1463 182° South  Level FlightAware Approximate
05:49PM 21.4719 -79.1502 182° South  Level FlightAware Approximate
05:50PM 21.3507 -79.1541 182° South  Level FlightAware Approximate
05:51PM 21.2294 -79.1580 182° South  Level FlightAware Approximate
05:52PM 21.1082 -79.1619 182° South  Level FlightAware Approximate
05:53PM 20.9870 -79.1658 182° South  Level FlightAware Approximate
05:54PM 20.8657 -79.1696 182° South  Level FlightAware Approximate
05:55PM 20.7445 -79.1735 182° South  Level FlightAware Approximate
05:56PM 20.6233 -79.1773 182° South  Level FlightAware Approximate
05:57PM 20.5020 -79.1812 182° South  Level FlightAware Approximate
05:58PM 20.3808 -79.1850 182° South  Level FlightAware Approximate
05:59PM 20.2596 -79.1889 182° South  Level FlightAware Approximate
06:00PM 20.1383 -79.1927 182° South  Level FlightAware Approximate
06:01PM 20.0171 -79.1965 183° South  Level FlightAware Approximate
06:02PM 19.8962 -79.2032 182° South  Level FlightAware Approximate
06:03PM 19.7750 -79.2072 182° South  Level FlightAware Approximate
06:04PM 19.6537 -79.2111 182° South  Level FlightAware Approximate
06:05PM 19.5325 -79.2150 182° South  Level FlightAware Approximate
06:06PM 19.4113 -79.2190 182° South  Level FlightAware Approximate
06:07PM 19.2900 -79.2229 182° South  Level FlightAware Approximate
06:08PM 19.1688 -79.2268 182° South  Level FlightAware Approximate
06:09PM 19.0476 -79.2307 182° South  Level FlightAware Approximate
06:10PM 18.9263 -79.2346 182° South  Level FlightAware Approximate
06:11PM 18.8051 -79.2385 182° South  Level FlightAware Approximate
06:12PM 18.6839 -79.2424 182° South  Level FlightAware Approximate
06:13PM 18.5627 -79.2463 182° South  Level FlightAware Approximate
06:14PM 18.4414 -79.2502 182° South  Level FlightAware Approximate
06:15PM 18.3202 -79.2541 182° South  Level FlightAware Approximate
06:16PM 18.1990 -79.2580 182° South  Level FlightAware Approximate
06:17PM 18.0777 -79.2618 182° South  Level FlightAware Approximate
06:18PM 17.9565 -79.2657 182° South  Level FlightAware Approximate
06:19PM 17.8353 -79.2696 182° South  Level FlightAware Approximate
06:20PM 17.7141 -79.2734 182° South  Level FlightAware Approximate
06:21PM 17.5928 -79.2773 182° South  Level FlightAware Approximate
06:22PM 17.4716 -79.2811 182° South  Level FlightAware Approximate
06:23PM 17.3504 -79.2849 182° South  Level FlightAware Approximate
06:24PM 17.2291 -79.2888 182° South  Level FlightAware Approximate
06:25PM 17.1079 -79.2926 182° South  Level FlightAware Approximate
06:26PM 16.9867 -79.2964 182° South  Level FlightAware Approximate
06:27PM 16.8654 -79.3002 182° South  Level FlightAware Approximate
06:28PM 16.7442 -79.3040 182° South  Level FlightAware Approximate
06:29PM 16.6230 -79.3078 182° South  Level FlightAware Approximate
06:30PM 16.5018 -79.3116 182° South  Level FlightAware Approximate
06:31PM 16.3805 -79.3154 182° South  Level FlightAware Approximate
06:32PM 16.2593 -79.3192 182° South  Level FlightAware Approximate
06:33PM 16.1381 -79.3230 182° South  Level FlightAware Approximate
06:34PM 16.0168 -79.3268 182° South  Level FlightAware Approximate
06:35PM 15.8956 -79.3306 182° South  Level FlightAware Approximate
06:36PM 15.7744 -79.3344 182° South  Level FlightAware Approximate
06:37PM 15.6531 -79.3381 182° South  Level FlightAware Approximate
06:38PM 15.5319 -79.3419 182° South  Level FlightAware Approximate
06:39PM 15.4107 -79.3456 182° South  Level FlightAware Approximate
06:40PM 15.2894 -79.3494 182° South  Level FlightAware Approximate
06:41PM 15.1682 -79.3532 182° South  Level FlightAware Approximate
06:42PM 15.0470 -79.3569 178° South  Level FlightAware Approximate
06:43PM 14.9262 -79.3527 182° South  Level FlightAware Approximate
06:44PM 14.8050 -79.3565 182° South  Level FlightAware Approximate
06:45PM 14.6838 -79.3604 182° South  Level FlightAware Approximate
06:46PM 14.5625 -79.3643 182° South  Level FlightAware Approximate
06:47PM 14.4413 -79.3681 182° South  Level FlightAware Approximate
06:48PM 14.3201 -79.3720 182° South  Level FlightAware Approximate
06:49PM 14.1988 -79.3758 182° South  Level FlightAware Approximate
06:50PM 14.0776 -79.3797 182° South  Level FlightAware Approximate
06:51PM 13.9564 -79.3835 182° South  Level FlightAware Approximate
06:52PM 13.8351 -79.3873 182° South  Level FlightAware Approximate
06:53PM 13.7139 -79.3912 184° South  Level FlightAware Approximate
06:54PM 13.5930 -79.4002 182° South  Level FlightAware Approximate
06:55PM 13.4717 -79.4039 182° South  Level FlightAware Approximate
06:56PM 13.3505 -79.4076 182° South  Level FlightAware Approximate
06:57PM 13.2293 -79.4113 182° South  Level FlightAware Approximate
06:58PM 13.1080 -79.4150 182° South  Level FlightAware Approximate
06:59PM 12.9868 -79.4187 182° South  Level FlightAware Approximate
07:00PM 12.8656 -79.4224 182° South  Level FlightAware Approximate
07:01PM 12.7444 -79.4261 182° South  Level FlightAware Approximate
07:02PM 12.6231 -79.4298 182° South  Level FlightAware Approximate
07:03PM 12.5019 -79.4335 182° South  Level FlightAware Approximate
07:04PM 12.3807 -79.4372 182° South  Level FlightAware Approximate
07:05PM 12.2594 -79.4409 177° South  Level FlightAware Approximate
07:06PM 12.1385 -79.4348 182° South  Level FlightAware Approximate
07:07PM 12.0173 -79.4384 182° South  Level FlightAware Approximate
07:08PM 11.8961 -79.4420 182° South  Level FlightAware Approximate
07:09PM 11.7748 -79.4456 182° South  Level FlightAware Approximate
07:10PM 11.6536 -79.4492 182° South  Level FlightAware Approximate
07:11PM 11.5324 -79.4529 182° South  Level FlightAware Approximate
07:12PM 11.4111 -79.4565 182° South  Level FlightAware Approximate
07:13PM 11.2899 -79.4601 182° South  Level FlightAware Approximate
07:14PM 11.1687 -79.4637 182° South  Level FlightAware Approximate
07:15PM 11.0475 -79.4672 182° South  Level FlightAware Approximate
07:16PM 10.9262 -79.4708 182° South  Level FlightAware Approximate
07:17PM 10.8050 -79.4744 182° South  Level FlightAware Approximate
07:18PM 10.6838 -79.4780 182° South  Level FlightAware Approximate
07:19PM 10.5625 -79.4816 182° South  Level FlightAware Approximate
07:20PM 10.4413 -79.4852 182° South  Level FlightAware Approximate
07:21PM 10.3201 -79.4888 182° South  Level FlightAware Approximate
07:22PM 10.1988 -79.4923 182° South  Level FlightAware Approximate
07:23PM 10.0776 -79.4959 182° South  Level FlightAware Approximate
07:24PM 9.9564 -79.4995 182° South  Level FlightAware Approximate
07:25PM 9.8352 -79.5031 182° South  Level FlightAware Approximate
07:26PM 9.7139 -79.5066 182° South  Level FlightAware Approximate
07:27PM 9.5927 -79.5102 182° South  Level FlightAware Approximate
07:28PM 9.4715 -79.5137 182° South  Level FlightAware Approximate
07:29PM 9.3502 -79.5173 182° South  Level FlightAware Approximate
07:30PM 9.2290 -79.5209 182° South  Level FlightAware Approximate
07:31PM 9.1078 -79.5244 182° South  Level FlightAware Approximate
07:32PM 8.9866 -79.5280 182° South  Level FlightAware Approximate
07:33PM 8.8653 -79.5315 182° South  Level FlightAware Approximate
07:34PM 8.7441 -79.5350 182° South  Level FlightAware Approximate
07:35PM 8.6229 -79.5386 182° South  Level FlightAware Approximate
07:36PM 8.5016 -79.5421 182° South  Level FlightAware Approximate
07:37PM 8.3804 -79.5457 182° South  Level FlightAware Approximate
07:38PM 8.2592 -79.5492 182° South  Level FlightAware Approximate
07:39PM 8.1379 -79.5527 182° South  Level FlightAware Approximate
07:40PM 8.0167 -79.5563 182° South  Level FlightAware Approximate
07:41PM 7.8955 -79.5598 182° South  Level FlightAware Approximate
07:42PM 7.7743 -79.5633 182° South  Level FlightAware Approximate
07:43PM 7.6530 -79.5668 182° South  Level FlightAware Approximate
07:44PM 7.5318 -79.5704 187° South  Level FlightAware Approximate
07:45PM 7.4130 -79.5849 182° South  Level FlightAware Approximate
07:46PM 7.2918 -79.5882 182° South  Level FlightAware Approximate
07:47PM 7.1705 -79.5915 182° South  Level FlightAware Approximate
07:48PM 7.0493 -79.5947 182° South  Level FlightAware Approximate
07:49PM 6.9281 -79.5980 182° South  Level FlightAware Approximate
07:50PM 6.8068 -79.6013 182° South  Level FlightAware Approximate
07:51PM 6.6856 -79.6045 178° South  Level FlightAware Approximate
07:52PM 6.5644 -79.6001 182° South  Level FlightAware Approximate
07:53PM 6.4432 -79.6036 182° South  Level FlightAware Approximate
07:54PM 6.3219 -79.6071 182° South  Level FlightAware Approximate
07:55PM 6.2007 -79.6106 182° South  Level FlightAware Approximate
07:56PM 6.0795 -79.6142 182° South  Level FlightAware Approximate
07:57PM 5.9582 -79.6177 182° South  Level FlightAware Approximate
07:58PM 5.8370 -79.6212 182° South  Level FlightAware Approximate
07:59PM 5.7158 -79.6247 182° South  Level FlightAware Approximate
08:00PM 5.5945 -79.6282 182° South  Level FlightAware Approximate
08:01PM 5.4733 -79.6317 182° South  Level FlightAware Approximate
08:02PM 5.3521 -79.6352 182° South  Level FlightAware Approximate
08:03PM 5.2309 -79.6387 182° South  Level FlightAware Approximate
08:04PM 5.1096 -79.6422 182° South  Level FlightAware Approximate
08:05PM 4.9884 -79.6458 182° South  Level FlightAware Approximate
08:06PM 4.8672 -79.6493 182° South  Level FlightAware Approximate
08:07PM 4.7459 -79.6528 182° South  Level FlightAware Approximate
08:08PM 4.6247 -79.6563 182° South  Level FlightAware Approximate
08:09PM 4.5035 -79.6598 182° South  Level FlightAware Approximate
08:10PM 4.3822 -79.6633 182° South  Level FlightAware Approximate
08:11PM 4.2610 -79.6668 182° South  Level FlightAware Approximate
08:12PM 4.1398 -79.6703 182° South  Level FlightAware Approximate
08:13PM 4.0185 -79.6738 182° South  Level FlightAware Approximate
08:14PM 3.8973 -79.6773 182° South  Level FlightAware Approximate
08:15PM 3.7761 -79.6808 182° South  Level FlightAware Approximate
08:16PM 3.6549 -79.6843 182° South  Level FlightAware Approximate
08:17PM 3.5336 -79.6878 182° South  Level FlightAware Approximate
08:18PM 3.4124 -79.6912 182° South  Level FlightAware Approximate
08:19PM 3.2912 -79.6947 182° South  Level FlightAware Approximate
08:20PM 3.1699 -79.6982 182° South  Level FlightAware Approximate
08:21PM 3.0487 -79.7017 182° South  Level FlightAware Approximate
08:22PM 2.9275 -79.7052 182° South  Level FlightAware Approximate
08:23PM 2.8063 -79.7087 182° South  Level FlightAware Approximate
08:24PM 2.6850 -79.7122 182° South  Level FlightAware Approximate
08:25PM 2.5638 -79.7157 182° South  Level FlightAware Approximate
08:26PM 2.4426 -79.7191 182° South  Level FlightAware Approximate
08:27PM 2.3213 -79.7226 182° South  Level FlightAware Approximate
08:28PM 2.2001 -79.7261 182° South  Level FlightAware Approximate
08:29PM 2.0789 -79.7296 182° South  Level FlightAware Approximate
08:30PM 1.9576 -79.7331 181° South  Level FlightAware Approximate
08:31PM 1.8364 -79.7342 170° South  Level FlightAware Approximate
08:32PM 1.7168 -79.7138 170° South  Level FlightAware Approximate
08:33PM 1.5973 -79.6934 170° South  Level FlightAware Approximate
08:34PM 1.4777 -79.6729 170° South  Level FlightAware Approximate
08:35PM 1.3582 -79.6525 170° South  Level FlightAware Approximate
08:36PM 1.2386 -79.6321 170° South  Level FlightAware Approximate
08:37PM 1.1191 -79.6116 170° South  Level FlightAware Approximate
08:38PM 0.9995 -79.5912 170° South  Level FlightAware Approximate
08:39PM 0.8800 -79.5708 170° South  Level FlightAware Approximate
08:40PM 0.7604 -79.5504 170° South  Level FlightAware Approximate
08:41PM 0.6409 -79.5300 170° South  Level FlightAware Approximate
08:42PM 0.5213 -79.5096 170° South  Level FlightAware Approximate
08:43PM 0.4018 -79.4891 170° South  Level FlightAware Approximate
08:44PM 0.2822 -79.4687 170° South  Level FlightAware Approximate
08:45PM 0.1627 -79.4483 170° South  Level FlightAware Approximate
08:46PM 0.0431 -79.4279 170° South  Level FlightAware Approximate
08:47PM -0.0764 -79.4075 170° South  Level FlightAware Approximate
08:48PM -0.1960 -79.3871 170° South  Level FlightAware Approximate
08:49PM -0.3155 -79.3667 170° South  Level FlightAware Approximate
08:50PM -0.4351 -79.3463 170° South  Level FlightAware Approximate
08:51PM -0.5546 -79.3258 170° South  Level FlightAware Approximate
08:52PM -0.6742 -79.3054 170° South  Level FlightAware Approximate
08:53PM -0.7937 -79.2850 170° South  Level FlightAware Approximate
08:54PM -0.9133 -79.2646 170° South  Level FlightAware Approximate
08:55PM -1.0328 -79.2442 170° South  Level FlightAware Approximate
08:56PM -1.1524 -79.2237 170° South  Level FlightAware Approximate
08:57PM -1.2719 -79.2033 170° South  Level FlightAware Approximate
08:58PM -1.3915 -79.1829 170° South  Level FlightAware Approximate
08:59PM -1.5110 -79.1625 169° South  Level FlightAware Approximate
09:00PM -1.6301 -79.1396 169° South  Level FlightAware Approximate
09:01PM -1.7493 -79.1168 169° South  Level FlightAware Approximate
09:02PM -1.8684 -79.0940 169° South  Level FlightAware Approximate
09:03PM -1.9875 -79.0712 169° South  Level FlightAware Approximate
09:04PM -2.1066 -79.0483 169° South  Level FlightAware Approximate
09:05PM -2.2257 -79.0255 169° South  Level FlightAware Approximate
09:06PM -2.3449 -79.0027 169° South  Level FlightAware Approximate
09:07PM -2.4640 -78.9798 169° South  Level FlightAware Approximate
09:08PM -2.5831 -78.9570 169° South  Level FlightAware Approximate
09:09PM -2.7022 -78.9342 169° South  Level FlightAware Approximate
09:10PM -2.8214 -78.9113 169° South  Level FlightAware Approximate
09:11PM -2.9405 -78.8884 169° South  Level FlightAware Approximate
09:12PM -3.0596 -78.8656 169° South  Level FlightAware Approximate
09:13PM -3.1787 -78.8427 169° South  Level FlightAware Approximate
09:14PM -3.2978 -78.8198 169° South  Level FlightAware Approximate
09:15PM -3.4169 -78.7970 169° South  Level FlightAware Approximate
09:16PM -3.5360 -78.7741 169° South  Level FlightAware Approximate
09:17PM -3.6551 -78.7512 169° South  Level FlightAware Approximate
09:18PM -3.7742 -78.7283 169° South  Level FlightAware Approximate
09:19PM -3.8933 -78.7054 169° South  Level FlightAware Approximate
09:20PM -4.0125 -78.6825 169° South  Level FlightAware Approximate
09:21PM -4.1316 -78.6596 169° South  Level FlightAware Approximate
09:22PM -4.2507 -78.6366 169° South  Level FlightAware Approximate
09:23PM -4.3698 -78.6137 169° South  Level FlightAware Approximate
09:24PM -4.4889 -78.5908 169° South  Level FlightAware Approximate
09:25PM -4.6080 -78.5678 169° South  Level FlightAware Approximate
09:26PM -4.7271 -78.5449 169° South  Level FlightAware Approximate
09:27PM -4.8462 -78.5219 169° South  Level FlightAware Approximate
09:28PM -4.9653 -78.4989 169° South  Level FlightAware Approximate
09:29PM -5.0844 -78.4760 169° South  Level FlightAware Approximate
09:30PM -5.2035 -78.4530 169° South  Level FlightAware Approximate
09:31PM -5.3226 -78.4300 169° South  Level FlightAware Approximate
09:32PM -5.4417 -78.4070 169° South  Level FlightAware Approximate
09:33PM -5.5608 -78.3839 169° South  Level FlightAware Approximate
09:34PM -5.6799 -78.3609 169° South  Level FlightAware Approximate
09:35PM -5.7990 -78.3379 169° South  Level FlightAware Approximate
09:36PM -5.9181 -78.3149 169° South  Level FlightAware Approximate
09:37PM -6.0372 -78.2918 169° South  Level FlightAware Approximate
09:38PM -6.1563 -78.2688 169° South  Level FlightAware Approximate
09:39PM -6.2754 -78.2457 169° South  Level FlightAware Approximate
09:40PM -6.3945 -78.2226 169° South  Level FlightAware Approximate
09:41PM -6.5136 -78.1995 169° South  Level FlightAware Approximate
09:42PM -6.6327 -78.1764 169° South  Level FlightAware Approximate
09:43PM -6.7518 -78.1533 169° South  Level FlightAware Approximate
09:44PM -6.8709 -78.1302 169° South  Level FlightAware Approximate
09:45PM -6.9900 -78.1070 169° South  Level FlightAware Approximate
09:46PM -7.1091 -78.0839 169° South  Level FlightAware Approximate
09:47PM -7.2281 -78.0607 169° South  Level FlightAware Approximate
09:48PM -7.3472 -78.0375 169° South  Level FlightAware Approximate
09:49PM -7.4663 -78.0143 169° South  Level FlightAware Approximate
09:50PM -7.5854 -77.9911 169° South  Level FlightAware Approximate
09:51PM -7.7045 -77.9679 169° South  Level FlightAware Approximate
09:52PM -7.8236 -77.9447 169° South  Level FlightAware Approximate
09:53PM -7.9426 -77.9215 169° South  Level FlightAware Approximate
09:54PM -8.0617 -77.8982 169° South  Level FlightAware Approximate
09:55PM -8.1808 -77.8749 169° South  Level FlightAware Approximate
09:56PM -8.2999 -77.8517 169° South  Level FlightAware Approximate
09:57PM -8.4190 -77.8284 169° South  Level FlightAware Approximate
09:58PM -8.5380 -77.8051 169° South  Level FlightAware Approximate
09:59PM -8.6571 -77.7818 169° South  Level FlightAware Approximate
10:00PM -8.7762 -77.7584 169° South  Level FlightAware Approximate
10:01PM -8.8952 -77.7351 169° South  Level FlightAware Approximate
10:02PM -9.0143 -77.7117 169° South  Level FlightAware Approximate
10:03PM -9.1334 -77.6883 169° South  Level FlightAware Approximate
10:04PM -9.2524 -77.6649 169° South  Level FlightAware Approximate
10:05PM -9.3715 -77.6415 169° South  Level FlightAware Approximate
10:06PM -9.4906 -77.6181 169° South  Level FlightAware Approximate
10:07PM -9.6096 -77.5946 169° South  Level FlightAware Approximate
10:08PM -9.7287 -77.5712 169° South  Level FlightAware Approximate
10:09PM -9.8477 -77.5477 169° South  Level FlightAware Approximate
10:10PM -9.9668 -77.5242 169° South  Level FlightAware Approximate
10:11PM -10.0858 -77.5007 169° South  Level FlightAware Approximate
10:12PM -10.2049 -77.4771 169° South  Level FlightAware Approximate
10:13PM -10.3239 -77.4536 169° South  Level FlightAware Approximate
10:14PM -10.4430 -77.4300 169° South  Level FlightAware Approximate
10:15PM -10.5620 -77.4064 169° South  Level FlightAware Approximate
10:16PM -10.6811 -77.3828 169° South  Level FlightAware Approximate
10:17PM -10.8001 -77.3592 169° South  Level FlightAware Approximate
10:18PM -10.9192 -77.3356 169° South  Level FlightAware Approximate
10:19PM -11.0382 -77.3119 169° South  Level FlightAware Approximate
10:20PM -11.1572 -77.2882 198° South  Level FlightAware Approximate
10:21PM -11.2652 -77.3238 198° South  Level FlightAware Approximate